createdAt,value
2022-07-25T00:00:21.582Z,100414.34
2022-07-25T00:01:01.500Z,100411.97
2022-07-25T00:01:42.608Z,100408.59
2022-07-25T00:02:22.575Z,100417.25
2022-07-25T00:03:02.704Z,100415.75
2022-07-25T00:03:42.484Z,100411.78
2022-07-25T00:04:24.687Z,100403.81
2022-07-25T00:05:05.497Z,100419.53
2022-07-25T00:05:45.586Z,100412.03
2022-07-25T00:06:25.471Z,100417.47
2022-07-25T00:07:05.520Z,100414.75
2022-07-25T00:07:45.490Z,100400.47
2022-07-25T00:08:25.613Z,100404.84
2022-07-25T00:09:05.482Z,100417.47
2022-07-25T00:09:46.063Z,100386.91
2022-07-25T00:10:26.516Z,100396.66
2022-07-25T00:11:07.572Z,100417.34
2022-07-25T00:11:48.477Z,100400.41
2022-07-25T00:12:29.587Z,100408.59
2022-07-25T00:13:10.466Z,100411.97
2022-07-25T00:13:50.573Z,100397.13
2022-07-25T00:14:31.488Z,100412.81
2022-07-25T00:15:13.576Z,100405.69
2022-07-25T00:15:53.528Z,100397.38
2022-07-25T00:16:33.571Z,100405.69
2022-07-25T00:17:13.473Z,100397.69
2022-07-25T00:17:53.557Z,100407.25
2022-07-25T00:18:34.466Z,100394.75
2022-07-25T00:19:14.636Z,100397.38
2022-07-25T00:19:54.460Z,100409.00
2022-07-25T00:20:34.540Z,100400.63
2022-07-25T00:21:15.523Z,100400.13
2022-07-25T00:21:56.594Z,100406.38
2022-07-25T00:22:36.515Z,100398.34
2022-07-25T00:23:16.553Z,100396.28
2022-07-25T00:23:57.459Z,100399.34
2022-07-25T00:24:37.644Z,100393.84
2022-07-25T00:25:18.465Z,100397.75
2022-07-25T00:25:58.543Z,100391.47
2022-07-25T00:26:40.516Z,100395.31
2022-07-25T00:27:21.542Z,100403.28
2022-07-25T00:28:01.597Z,100400.84
2022-07-25T00:28:41.555Z,100394.94
2022-07-25T00:29:21.458Z,100395.44
2022-07-25T00:30:01.579Z,100387.78
2022-07-25T00:30:41.445Z,100388.53
2022-07-25T00:31:21.586Z,100398.59
2022-07-25T00:32:01.469Z,100395.16
2022-07-25T00:32:42.536Z,100394.44
2022-07-25T00:33:23.462Z,100398.91
2022-07-25T00:34:03.993Z,100398.22
2022-07-25T00:34:44.476Z,100396.16
2022-07-25T00:35:24.584Z,100388.09
2022-07-25T00:36:05.455Z,100403.63
2022-07-25T00:36:45.628Z,100397.84
2022-07-25T00:37:25.563Z,100395.31
2022-07-25T00:38:06.519Z,100397.31
2022-07-25T00:38:47.442Z,100401.19
2022-07-25T00:39:27.521Z,100392.38
2022-07-25T00:40:08.459Z,100393.22
2022-07-25T00:40:54.323Z,100384.91
2022-07-25T00:41:35.458Z,100390.19
2022-07-25T00:42:15.544Z,100386.28
2022-07-25T00:42:56.476Z,100399.34
2022-07-25T00:43:36.559Z,100393.38
2022-07-25T00:44:27.439Z,100400.66
2022-07-25T00:45:07.802Z,100401.03
2022-07-25T00:45:47.436Z,100397.91
2022-07-25T00:46:27.574Z,100397.16
2022-07-25T00:47:08.451Z,100395.56
2022-07-25T00:47:48.535Z,100379.47
2022-07-25T00:48:28.545Z,100389.22
2022-07-25T00:49:09.623Z,100391.84
2022-07-25T00:49:49.453Z,100396.06
2022-07-25T00:50:29.530Z,100388.50
2022-07-25T00:51:09.486Z,100384.78
2022-07-25T00:51:50.532Z,100396.38
2022-07-25T00:52:31.450Z,100389.66
2022-07-25T00:53:11.573Z,100383.34
2022-07-25T00:53:52.472Z,100397.16
2022-07-25T00:54:32.514Z,100397.97
2022-07-25T00:55:13.442Z,100384.47
2022-07-25T00:55:53.517Z,100382.75
2022-07-25T00:56:34.435Z,100387.84
2022-07-25T00:57:14.558Z,100398.47
2022-07-25T00:57:54.450Z,100387.50
2022-07-25T00:58:34.490Z,100396.25
2022-07-25T00:59:15.447Z,100393.34
2022-07-25T00:59:55.516Z,100386.50
2022-07-25T01:00:36.449Z,100396.59
2022-07-25T01:01:16.563Z,100384.81
2022-07-25T01:01:57.505Z,100392.06
2022-07-25T01:02:37.524Z,100393.59
2022-07-25T01:03:17.478Z,100396.56
2022-07-25T01:03:57.513Z,100395.53
2022-07-25T01:04:39.448Z,100373.56
2022-07-25T01:05:19.487Z,100395.28
2022-07-25T01:06:00.447Z,100384.34
2022-07-25T01:06:41.517Z,100392.72
2022-07-25T01:07:21.434Z,100368.88
2022-07-25T01:08:01.495Z,100393.22
2022-07-25T01:08:41.443Z,100385.22
2022-07-25T01:09:23.555Z,100386.88
2022-07-25T01:10:04.457Z,100390.78
2022-07-25T01:10:44.475Z,100390.09
2022-07-25T01:11:24.409Z,100387.84
2022-07-25T01:12:04.499Z,100386.81
2022-07-25T01:13:03.426Z,100373.22
2022-07-25T01:13:43.514Z,100388.59
2022-07-25T01:14:23.430Z,100360.91
2022-07-25T01:15:11.460Z,100382.25
2022-07-25T01:16:05.485Z,100387.19
2022-07-25T01:16:59.418Z,100384.81
2022-07-25T01:17:53.423Z,100379.53
2022-07-25T01:18:47.416Z,100375.94
2022-07-25T01:19:41.442Z,100375.75
2022-07-25T01:20:31.462Z,100379.00
2022-07-25T01:21:05.491Z,100374.72
2022-07-25T01:21:52.424Z,100385.53
2022-07-25T01:22:26.490Z,100360.59
2022-07-25T01:23:13.409Z,100371.50
2022-07-25T01:23:48.482Z,100367.34
2022-07-25T01:24:36.398Z,100364.63
2022-07-25T01:25:10.484Z,100371.31
2022-07-25T01:25:51.441Z,100367.44
2022-07-25T01:26:31.841Z,100368.41
2022-07-25T01:27:17.435Z,100358.91
2022-07-25T01:27:58.673Z,100363.00
2022-07-25T01:28:39.413Z,100363.53
2022-07-25T01:29:19.721Z,100367.97
2022-07-25T01:29:59.427Z,100358.25
2022-07-25T01:30:39.509Z,100359.75
2022-07-25T01:31:19.468Z,100368.50
2022-07-25T01:32:00.510Z,100354.50
2022-07-25T01:32:41.435Z,100370.56
2022-07-25T01:33:28.532Z,100364.75
2022-07-25T01:34:08.710Z,100358.91
2022-07-25T01:34:49.475Z,100361.34
2022-07-25T01:35:30.414Z,100352.94
2022-07-25T01:36:11.493Z,100358.56
2022-07-25T01:36:51.427Z,100351.75
2022-07-25T01:37:31.517Z,100354.25
2022-07-25T01:38:11.391Z,100347.88
2022-07-25T01:38:51.495Z,100347.63
2022-07-25T01:39:34.402Z,100349.25
2022-07-25T01:40:15.481Z,100351.97
2022-07-25T01:40:55.395Z,100355.75
2022-07-25T01:41:35.616Z,100355.09
2022-07-25T01:42:15.521Z,100354.59
2022-07-25T01:42:56.452Z,100346.56
2022-07-25T01:43:36.410Z,100337.03
2022-07-25T01:44:17.329Z,100358.19
2022-07-25T01:44:57.382Z,100345.34
2022-07-25T01:45:38.468Z,100335.81
2022-07-25T01:46:19.553Z,100351.72
2022-07-25T01:46:59.488Z,100353.63
2022-07-25T01:47:39.420Z,100356.34
2022-07-25T01:48:20.091Z,100353.63
2022-07-25T01:49:01.483Z,100336.25
2022-07-25T01:49:41.462Z,100356.34
2022-07-25T01:50:22.463Z,100339.63
2022-07-25T01:51:02.473Z,100322.91
2022-07-25T01:51:43.412Z,100343.81
2022-07-25T01:52:23.506Z,100352.88
2022-07-25T01:53:03.421Z,100357.31
2022-07-25T01:53:43.440Z,100341.97
2022-07-25T01:54:25.396Z,100340.41
2022-07-25T01:55:06.231Z,100340.25
2022-07-25T01:55:46.387Z,100353.59
2022-07-25T01:56:26.459Z,100351.41
2022-07-25T01:57:11.479Z,100340.03
2022-07-25T01:57:52.499Z,100346.34
2022-07-25T01:58:32.418Z,100329.69
2022-07-25T01:59:12.488Z,100336.63
2022-07-25T01:59:52.396Z,100351.09
2022-07-25T02:00:32.468Z,100350.59
2022-07-25T02:01:13.486Z,100330.88
2022-07-25T02:01:53.497Z,100341.09
2022-07-25T02:02:34.379Z,100337.38
2022-07-25T02:03:39.402Z,100343.91
2022-07-25T02:04:33.448Z,100337.59
2022-07-25T02:05:28.391Z,100338.31
2022-07-25T02:06:22.381Z,100350.28
2022-07-25T02:07:17.409Z,100336.66
2022-07-25T02:08:11.402Z,100337.50
2022-07-25T02:08:58.408Z,100342.94
2022-07-25T02:09:32.492Z,100346.75
2022-07-25T02:10:19.374Z,100346.06
2022-07-25T02:10:53.493Z,100343.19
2022-07-25T02:11:41.395Z,100355.16
2022-07-25T02:12:15.448Z,100336.25
2022-07-25T02:13:02.374Z,100365.78
2022-07-25T02:13:36.438Z,100352.63
2022-07-25T02:14:23.416Z,100355.50
2022-07-25T02:14:57.487Z,100344.41
2022-07-25T02:15:44.443Z,100340.34
2022-07-25T02:16:18.539Z,100362.31
2022-07-25T02:17:05.433Z,100345.78
2022-07-25T02:17:39.457Z,100345.78
2022-07-25T02:18:27.369Z,100356.03
2022-07-25T02:19:01.447Z,100360.47
2022-07-25T02:19:49.400Z,100360.13
2022-07-25T02:20:23.449Z,100360.13
2022-07-25T02:21:14.316Z,100354.31
2022-07-25T02:21:49.454Z,100362.00
2022-07-25T02:22:36.366Z,100358.75
2022-07-25T02:23:11.465Z,100345.97
2022-07-25T02:23:58.350Z,100349.19
2022-07-25T02:24:32.636Z,100348.00
2022-07-25T02:25:13.413Z,100351.59
2022-07-25T02:25:53.445Z,100325.16
2022-07-25T02:26:34.385Z,100340.84
2022-07-25T02:27:14.439Z,100343.06
2022-07-25T02:27:54.350Z,100342.03
2022-07-25T02:28:34.434Z,100342.53
2022-07-25T02:29:15.358Z,100346.13
2022-07-25T02:29:55.416Z,100350.41
2022-07-25T02:30:36.432Z,100350.59
2022-07-25T02:31:17.527Z,100347.53
2022-07-25T02:31:59.364Z,100342.72
2022-07-25T02:32:39.490Z,100341.69
2022-07-25T02:33:19.369Z,100348.84
2022-07-25T02:33:59.444Z,100332.16
2022-07-25T02:34:39.347Z,100356.06
2022-07-25T02:35:19.416Z,100352.63
2022-07-25T02:35:59.370Z,100336.56
2022-07-25T02:36:39.431Z,100337.09
2022-07-25T02:37:19.373Z,100325.50
2022-07-25T02:37:59.420Z,100346.81
2022-07-25T02:38:40.376Z,100343.94
2022-07-25T02:39:21.213Z,100327.72
2022-07-25T02:40:01.356Z,100334.22
2022-07-25T02:40:41.681Z,100341.38
2022-07-25T02:41:21.379Z,100335.59
2022-07-25T02:42:01.414Z,100338.81
2022-07-25T02:42:41.335Z,100343.56
2022-07-25T02:43:21.397Z,100338.78
2022-07-25T02:44:01.364Z,100340.31
2022-07-25T02:44:41.432Z,100329.25
2022-07-25T02:45:21.359Z,100343.72
2022-07-25T02:46:01.501Z,100337.25
2022-07-25T02:46:42.505Z,100338.44
2022-07-25T02:47:23.456Z,100331.78
2022-07-25T02:48:04.345Z,100337.28
2022-07-25T02:48:44.590Z,100336.94
2022-07-25T02:49:25.334Z,100330.47
2022-07-25T02:50:05.457Z,100341.88
2022-07-25T02:50:46.359Z,100339.28
2022-07-25T02:51:26.411Z,100328.75
2022-07-25T02:52:06.380Z,100346.28
2022-07-25T02:52:47.422Z,100327.03
2022-07-25T02:53:54.446Z,100329.06
2022-07-25T02:54:27.398Z,100328.06
2022-07-25T02:55:09.726Z,100337.75
2022-07-25T02:55:50.399Z,100341.66
2022-07-25T02:56:32.091Z,100327.50
2022-07-25T02:57:19.398Z,100333.16
2022-07-25T02:58:13.351Z,100337.56
2022-07-25T02:59:07.334Z,100341.97
2022-07-25T03:00:01.383Z,100334.31
2022-07-25T03:00:55.411Z,100327.63
2022-07-25T03:01:49.416Z,100337.50
2022-07-25T03:02:36.349Z,100334.44
2022-07-25T03:03:10.433Z,100338.88
2022-07-25T03:03:57.420Z,100331.38
2022-07-25T03:04:31.435Z,100331.06
2022-07-25T03:05:23.352Z,100348.78
2022-07-25T03:05:57.406Z,100343.31
2022-07-25T03:06:44.337Z,100343.31
2022-07-25T03:07:18.466Z,100323.56
2022-07-25T03:07:58.341Z,100338.22
2022-07-25T03:08:39.461Z,100346.59
2022-07-25T03:09:19.321Z,100341.13
2022-07-25T03:09:59.417Z,100342.34
2022-07-25T03:10:40.325Z,100349.47
2022-07-25T03:11:20.403Z,100332.09
2022-07-25T03:12:00.328Z,100340.97
2022-07-25T03:12:40.386Z,100342.69
2022-07-25T03:13:20.358Z,100335.84
2022-07-25T03:14:00.381Z,100340.97
2022-07-25T03:14:40.317Z,100322.38
2022-07-25T03:15:21.368Z,100342.84
2022-07-25T03:16:01.317Z,100336.84
2022-07-25T03:16:41.803Z,100331.56
2022-07-25T03:17:21.343Z,100333.78
2022-07-25T03:18:01.378Z,100342.69
2022-07-25T03:18:42.372Z,100338.91
2022-07-25T03:19:23.390Z,100339.25
2022-07-25T03:20:04.311Z,100339.81
2022-07-25T03:20:44.366Z,100335.16
2022-07-25T03:21:25.305Z,100340.09
2022-07-25T03:22:05.374Z,100325.97
2022-07-25T03:22:46.321Z,100333.78
2022-07-25T03:23:30.911Z,100324.78
2022-07-25T03:24:12.352Z,100338.78
2022-07-25T03:24:53.370Z,100325.63
2022-07-25T03:25:34.309Z,100336.56
2022-07-25T03:26:14.393Z,100334.19
2022-07-25T03:26:54.302Z,100335.03
2022-07-25T03:27:34.401Z,100323.59
2022-07-25T03:28:14.328Z,100340.81
2022-07-25T03:28:54.374Z,100326.66
2022-07-25T03:29:35.349Z,100340.47
2022-07-25T03:30:16.440Z,100335.84
2022-07-25T03:30:57.327Z,100334.84
2022-07-25T03:31:37.434Z,100345.91
2022-07-25T03:32:18.347Z,100343.31
2022-07-25T03:32:58.390Z,100334.78
2022-07-25T03:33:38.302Z,100328.66
2022-07-25T03:34:18.366Z,100331.38
2022-07-25T03:34:59.326Z,100337.69
2022-07-25T03:35:39.381Z,100325.25
2022-07-25T03:36:19.317Z,100332.78
2022-07-25T03:37:00.282Z,100326.63
2022-07-25T03:37:40.302Z,100329.69
2022-07-25T03:38:20.391Z,100333.09
2022-07-25T03:39:05.465Z,100343.16
2022-07-25T03:39:46.430Z,100322.16
2022-07-25T03:40:27.315Z,100330.81
2022-07-25T03:41:08.363Z,100337.56
2022-07-25T03:41:49.297Z,100327.63
2022-07-25T03:42:34.988Z,100337.50
2022-07-25T03:43:15.306Z,100327.63
2022-07-25T03:43:55.412Z,100324.38
2022-07-25T03:44:36.294Z,100335.44
2022-07-25T03:45:17.864Z,100328.66
2022-07-25T03:45:58.377Z,100337.00
2022-07-25T03:46:39.392Z,100330.34
2022-07-25T03:47:20.245Z,100339.56
2022-07-25T03:48:01.366Z,100340.75
2022-07-25T03:48:41.344Z,100328.88
2022-07-25T03:49:21.392Z,100335.84
2022-07-25T03:50:02.312Z,100318.81
2022-07-25T03:50:42.403Z,100330.06
2022-07-25T03:51:22.395Z,100314.00
2022-07-25T03:52:03.392Z,100327.31
2022-07-25T03:52:45.302Z,100327.47
2022-07-25T03:53:25.411Z,100325.13
2022-07-25T03:54:08.616Z,100327.63
2022-07-25T03:54:49.362Z,100318.38
2022-07-25T03:55:30.322Z,100307.66
2022-07-25T03:56:10.381Z,100326.38
2022-07-25T03:56:55.305Z,100322.81
2022-07-25T03:57:35.383Z,100321.31
2022-07-25T03:58:15.283Z,100326.25
2022-07-25T03:58:55.437Z,100329.97
2022-07-25T03:59:35.278Z,100312.94
2022-07-25T04:00:17.707Z,100320.59
2022-07-25T04:00:57.303Z,100308.81
2022-07-25T04:01:40.596Z,100310.16
2022-07-25T04:02:20.391Z,100327.38
2022-07-25T04:03:01.376Z,100318.84
2022-07-25T04:03:41.281Z,100313.91
2022-07-25T04:04:25.381Z,100310.78
2022-07-25T04:05:05.307Z,100302.66
2022-07-25T04:05:47.546Z,100313.59
2022-07-25T04:06:30.278Z,100297.56
2022-07-25T04:07:10.438Z,100315.97
2022-07-25T04:07:50.283Z,100311.72
2022-07-25T04:08:30.367Z,100302.03
2022-07-25T04:09:12.283Z,100318.06
2022-07-25T04:09:52.354Z,100312.25
2022-07-25T04:10:32.283Z,100299.97
2022-07-25T04:11:12.337Z,100312.59
2022-07-25T04:11:52.272Z,100301.00
2022-07-25T04:12:32.613Z,100313.59
2022-07-25T04:13:13.290Z,100306.78
2022-07-25T04:13:54.518Z,100315.84
2022-07-25T04:14:34.253Z,100311.22
2022-07-25T04:15:16.406Z,100311.94
2022-07-25T04:15:56.293Z,100309.53
2022-07-25T04:16:39.385Z,100313.69
2022-07-25T04:17:20.294Z,100318.25
2022-07-25T04:18:01.356Z,100311.59
2022-07-25T04:18:43.299Z,100306.47
2022-07-25T04:19:24.395Z,100312.31
2022-07-25T04:20:06.258Z,100315.56
2022-07-25T04:20:47.338Z,100320.88
2022-07-25T04:21:28.271Z,100312.66
2022-07-25T04:22:08.431Z,100314.72
2022-07-25T04:22:48.270Z,100320.16
2022-07-25T04:23:28.734Z,100319.31
2022-07-25T04:24:09.597Z,100310.28
2022-07-25T04:24:50.326Z,100315.41
2022-07-25T04:25:30.268Z,100309.28
2022-07-25T04:26:11.342Z,100316.06
2022-07-25T04:26:51.265Z,100311.78
2022-07-25T04:27:31.346Z,100299.72
2022-07-25T04:28:12.264Z,100296.00
2022-07-25T04:28:52.328Z,100301.44
2022-07-25T04:29:32.288Z,100317.78
2022-07-25T04:30:13.988Z,100301.56
2022-07-25T04:31:04.285Z,100311.28
2022-07-25T04:31:44.352Z,100316.06
2022-07-25T04:32:26.291Z,100297.66
2022-07-25T04:33:06.308Z,100315.00
2022-07-25T04:33:47.238Z,100308.69
2022-07-25T04:34:27.343Z,100312.25
2022-07-25T04:35:08.284Z,100294.31
2022-07-25T04:35:48.327Z,100311.88
2022-07-25T04:36:29.258Z,100293.28
2022-07-25T04:37:09.322Z,100309.63
2022-07-25T04:37:49.244Z,100295.88
2022-07-25T04:38:29.325Z,100300.78
2022-07-25T04:39:10.239Z,100309.81
2022-07-25T04:39:50.300Z,100307.94
2022-07-25T04:40:31.262Z,100308.78
2022-07-25T04:41:11.657Z,100305.50
2022-07-25T04:41:51.268Z,100306.69
2022-07-25T04:42:31.341Z,100298.69
2022-07-25T04:43:12.259Z,100311.13
2022-07-25T04:43:52.311Z,100312.34
2022-07-25T04:44:32.247Z,100304.66
2022-07-25T04:45:13.625Z,100305.16
2022-07-25T04:45:54.338Z,100289.63
2022-07-25T04:46:34.320Z,100306.16
2022-07-25T04:47:15.236Z,100299.16
2022-07-25T04:47:55.319Z,100298.63
2022-07-25T04:48:35.270Z,100310.41
2022-07-25T04:49:15.366Z,100288.75
2022-07-25T04:49:55.245Z,100303.25
2022-07-25T04:50:36.352Z,100297.78
2022-07-25T04:51:17.248Z,100298.28
2022-07-25T04:51:57.354Z,100299.94
2022-07-25T04:52:37.217Z,100282.03
2022-07-25T04:53:17.299Z,100301.50
2022-07-25T04:53:57.246Z,100287.47
2022-07-25T04:54:37.312Z,100305.84
2022-07-25T04:55:18.236Z,100302.09
2022-07-25T04:55:58.313Z,100287.25
2022-07-25T04:56:39.322Z,100290.69
2022-07-25T04:57:19.298Z,100287.41
2022-07-25T04:57:59.230Z,100287.41
2022-07-25T04:58:39.361Z,100288.38
2022-07-25T04:59:19.237Z,100274.59
2022-07-25T04:59:59.283Z,100290.38
2022-07-25T05:00:40.299Z,100283.38
2022-07-25T05:01:20.456Z,100287.97
2022-07-25T05:02:01.338Z,100281.97
2022-07-25T05:02:42.406Z,100279.38
2022-07-25T05:03:22.227Z,100287.97
2022-07-25T05:04:02.327Z,100269.25
2022-07-25T05:04:45.410Z,100267.34
2022-07-25T05:05:27.318Z,100281.09
2022-07-25T05:06:07.231Z,100280.53
2022-07-25T05:06:47.273Z,100279.38
2022-07-25T05:07:28.249Z,100284.38
2022-07-25T05:08:08.310Z,100269.16
2022-07-25T05:08:49.233Z,100276.66
2022-07-25T05:09:29.308Z,100278.53
2022-07-25T05:10:11.214Z,100273.91
2022-07-25T05:10:51.317Z,100264.69
2022-07-25T05:11:34.213Z,100273.31
2022-07-25T05:12:15.288Z,100281.66
2022-07-25T05:12:56.234Z,100279.88
2022-07-25T05:13:36.341Z,100272.59
2022-07-25T05:14:16.234Z,100277.47
2022-07-25T05:14:56.666Z,100261.50
2022-07-25T05:15:36.234Z,100264.19
2022-07-25T05:16:16.488Z,100275.75
2022-07-25T05:16:56.402Z,100266.09
2022-07-25T05:17:36.301Z,100267.53
2022-07-25T05:18:17.231Z,100263.31
2022-07-25T05:18:57.269Z,100271.47
2022-07-25T05:19:38.204Z,100265.09
2022-07-25T05:20:20.322Z,100271.56
2022-07-25T05:21:00.235Z,100270.72
2022-07-25T05:21:40.288Z,100270.34
2022-07-25T05:22:25.121Z,100270.81
2022-07-25T05:23:08.285Z,100258.47
2022-07-25T05:23:49.242Z,100256.56
2022-07-25T05:24:29.341Z,100262.69
2022-07-25T05:25:10.214Z,100274.88
2022-07-25T05:25:50.276Z,100268.81
2022-07-25T05:26:31.229Z,100271.31
2022-07-25T05:27:12.385Z,100268.94
2022-07-25T05:27:53.224Z,100264.50
2022-07-25T05:28:33.274Z,100262.28
2022-07-25T05:29:14.251Z,100253.09
2022-07-25T05:29:54.281Z,100256.41
2022-07-25T05:30:39.593Z,100245.94
2022-07-25T05:31:20.336Z,100247.06
2022-07-25T05:32:00.350Z,100259.59
2022-07-25T05:32:40.286Z,100244.84
2022-07-25T05:33:20.219Z,100258.06
2022-07-25T05:34:14.249Z,100257.06
2022-07-25T05:35:08.255Z,100256.00
2022-07-25T05:36:02.210Z,100242.03
2022-07-25T05:36:56.193Z,100251.84
2022-07-25T05:37:51.190Z,100255.25
2022-07-25T05:38:45.190Z,100242.13
2022-07-25T05:39:32.255Z,100243.13
2022-07-25T05:40:06.291Z,100251.00
2022-07-25T05:40:53.212Z,100252.78
2022-07-25T05:41:27.322Z,100221.59
2022-07-25T05:42:15.289Z,100249.88
2022-07-25T05:42:49.328Z,100243.13
2022-07-25T05:43:36.187Z,100239.16
2022-07-25T05:44:10.501Z,100228.41
2022-07-25T05:44:57.215Z,100248.13
2022-07-25T05:45:31.362Z,100245.84
2022-07-25T05:46:18.319Z,100248.84
2022-07-25T05:46:52.347Z,100235.91
2022-07-25T05:47:39.210Z,100238.91
2022-07-25T05:48:13.283Z,100239.59
2022-07-25T05:49:00.220Z,100240.22
2022-07-25T05:49:34.270Z,100228.41
2022-07-25T05:50:21.213Z,100236.56
2022-07-25T05:50:55.347Z,100247.16
2022-07-25T05:51:42.178Z,100222.63
2022-07-25T05:52:16.288Z,100239.19
2022-07-25T05:53:03.222Z,100235.41
2022-07-25T05:53:37.282Z,100222.94
2022-07-25T05:54:25.188Z,100229.53
2022-07-25T05:55:01.288Z,100235.09
2022-07-25T05:55:42.229Z,100242.72
2022-07-25T05:56:22.246Z,100238.19
2022-07-25T05:57:02.172Z,100229.66
2022-07-25T05:57:42.320Z,100231.44
2022-07-25T05:58:29.134Z,100229.94
2022-07-25T05:59:10.312Z,100229.53
2022-07-25T05:59:52.217Z,100234.50
2022-07-25T06:00:35.965Z,100243.81
2022-07-25T06:01:21.285Z,100224.81
2022-07-25T06:02:01.364Z,100229.94
2022-07-25T06:02:42.273Z,100235.00
2022-07-25T06:03:22.286Z,100229.31
2022-07-25T06:04:03.453Z,100229.31
2022-07-25T06:04:44.254Z,100232.91
2022-07-25T06:05:24.172Z,100233.78
2022-07-25T06:06:04.284Z,100221.03
2022-07-25T06:06:45.220Z,100229.38
2022-07-25T06:07:25.384Z,100232.13
2022-07-25T06:08:06.185Z,100230.00
2022-07-25T06:08:47.270Z,100229.59
2022-07-25T06:09:30.179Z,100215.66
2022-07-25T06:10:11.238Z,100227.91
2022-07-25T06:10:51.184Z,100223.47
2022-07-25T06:11:31.598Z,100215.66
2022-07-25T06:12:13.207Z,100228.56
2022-07-25T06:12:53.287Z,100222.22
2022-07-25T06:13:35.188Z,100226.03
2022-07-25T06:14:15.259Z,100216.13
2022-07-25T06:14:55.186Z,100216.53
2022-07-25T06:15:35.264Z,100208.09
2022-07-25T06:16:16.216Z,100229.72
2022-07-25T06:16:56.247Z,100218.28
2022-07-25T06:17:37.199Z,100228.50
2022-07-25T06:18:17.268Z,100216.22
2022-07-25T06:18:57.202Z,100218.81
2022-07-25T06:19:37.253Z,100217.09
2022-07-25T06:20:19.208Z,100201.44
2022-07-25T06:20:59.272Z,100226.00
2022-07-25T06:21:40.157Z,100204.81
2022-07-25T06:22:20.239Z,100216.25
2022-07-25T06:23:01.228Z,100217.59
2022-07-25T06:23:41.219Z,100219.75
2022-07-25T06:24:21.200Z,100216.34
2022-07-25T06:25:01.250Z,100219.13
2022-07-25T06:25:41.181Z,100217.69
2022-07-25T06:26:21.417Z,100212.19
2022-07-25T06:27:02.157Z,100214.34
2022-07-25T06:27:45.250Z,100203.75
2022-07-25T06:28:26.186Z,100202.50
2022-07-25T06:29:06.280Z,100215.66
2022-07-25T06:29:48.466Z,100202.53
2022-07-25T06:30:29.481Z,100212.09
2022-07-25T06:31:09.254Z,100210.59
2022-07-25T06:31:49.298Z,100210.59
2022-07-25T06:32:30.164Z,100208.09
2022-07-25T06:33:10.218Z,100211.50
2022-07-25T06:33:51.199Z,100222.09
2022-07-25T06:34:31.246Z,100215.75
2022-07-25T06:35:12.159Z,100220.00
2022-07-25T06:35:53.303Z,100210.47
2022-07-25T06:36:33.243Z,100212.59
2022-07-25T06:37:13.220Z,100217.50
2022-07-25T06:37:54.140Z,100206.28
2022-07-25T06:38:34.226Z,100206.91
2022-07-25T06:39:15.207Z,100212.44
2022-07-25T06:39:55.577Z,100217.56
2022-07-25T06:40:38.158Z,100212.03
2022-07-25T06:41:22.239Z,100203.53
2022-07-25T06:42:06.150Z,100212.06
2022-07-25T06:42:52.417Z,100208.69
2022-07-25T06:43:38.143Z,100199.81
2022-07-25T06:44:26.176Z,100206.56
2022-07-25T06:45:25.207Z,100206.78
2022-07-25T06:46:19.239Z,100193.47
2022-07-25T06:47:19.149Z,100194.53
2022-07-25T06:48:13.168Z,100191.56
2022-07-25T06:49:07.235Z,100194.53
2022-07-25T06:49:49.175Z,100199.38
2022-07-25T06:50:29.218Z,100199.81
2022-07-25T06:51:10.160Z,100198.97
2022-07-25T06:51:51.235Z,100184.78
2022-07-25T06:52:32.178Z,100185.19
2022-07-25T06:53:12.233Z,100194.31
2022-07-25T06:53:52.143Z,100193.47
2022-07-25T06:54:32.214Z,100177.34
2022-07-25T06:55:15.186Z,100191.16
2022-07-25T06:55:55.205Z,100177.59
2022-07-25T06:56:38.137Z,100188.38
2022-07-25T06:57:18.286Z,100191.56
2022-07-25T06:57:58.145Z,100177.38
2022-07-25T06:58:38.233Z,100196.00
2022-07-25T06:59:19.159Z,100189.66
2022-07-25T06:59:59.209Z,100187.53
2022-07-25T07:00:40.205Z,100166.56
2022-07-25T07:01:21.267Z,100179.03
2022-07-25T07:02:02.138Z,100181.59
2022-07-25T07:02:58.660Z,100182.03
2022-07-25T07:03:44.188Z,100161.88
2022-07-25T07:04:24.312Z,100182.25
2022-07-25T07:05:04.137Z,100180.13
2022-07-25T07:05:54.257Z,100176.31
2022-07-25T07:06:48.163Z,100165.94
2022-07-25T07:07:47.126Z,100177.38
2022-07-25T07:08:41.216Z,100184.13
2022-07-25T07:09:35.132Z,100181.16
2022-07-25T07:10:30.128Z,100172.25
2022-07-25T07:11:17.195Z,100164.63
2022-07-25T07:11:51.267Z,100163.56
2022-07-25T07:12:38.121Z,100164.63
2022-07-25T07:13:23.719Z,100178.16
2022-07-25T07:14:12.133Z,100171.59
2022-07-25T07:14:46.201Z,100170.34
2022-07-25T07:15:33.125Z,100168.00
2022-07-25T07:16:07.278Z,100171.59
2022-07-25T07:16:49.138Z,100168.00
2022-07-25T07:17:30.223Z,100177.28
2022-07-25T07:18:12.362Z,100174.06
2022-07-25T07:18:52.683Z,100167.50
2022-07-25T07:19:33.129Z,100167.91
2022-07-25T07:20:15.239Z,100159.88
2022-07-25T07:20:56.278Z,100168.34
2022-07-25T07:21:36.209Z,100168.97
2022-07-25T07:22:16.132Z,100164.94
2022-07-25T07:22:56.261Z,100158.16
2022-07-25T07:23:38.148Z,100160.22
2022-07-25T07:24:23.970Z,100166.63
2022-07-25T07:25:05.471Z,100154.06
2022-07-25T07:25:47.024Z,100166.63
2022-07-25T07:26:30.141Z,100165.31
2022-07-25T07:27:10.201Z,100159.78
2022-07-25T07:27:52.135Z,100153.22
2022-07-25T07:28:46.148Z,100157.66
2022-07-25T07:29:40.287Z,100168.69
2022-07-25T07:31:38.363Z,100164.41
2022-07-25T07:31:59.201Z,100152.94
2022-07-25T07:32:53.155Z,100142.84
2022-07-25T07:33:47.119Z,100159.06
2022-07-25T07:34:41.143Z,100143.38
2022-07-25T07:35:36.128Z,100158.38
2022-07-25T07:36:31.122Z,100147.16
2022-07-25T07:37:25.146Z,100138.28
2022-07-25T07:38:13.155Z,100156.59
2022-07-25T07:38:48.440Z,100144.94
2022-07-25T07:39:37.106Z,100150.69
2022-07-25T07:40:17.917Z,100155.72
2022-07-25T07:41:05.102Z,100153.59
2022-07-25T07:41:39.216Z,100145.56
2022-07-25T07:42:26.098Z,100149.41
2022-07-25T07:43:03.195Z,100152.81
2022-07-25T07:43:43.270Z,100145.31
2022-07-25T07:44:25.208Z,100135.78
2022-07-25T07:45:05.169Z,100145.25
2022-07-25T07:45:45.167Z,100147.59
2022-07-25T07:46:25.161Z,100142.50
2022-07-25T07:47:05.353Z,100153.50
2022-07-25T07:47:59.149Z,100151.81
2022-07-25T07:48:40.221Z,100140.31
2022-07-25T07:49:21.233Z,100133.97
2022-07-25T07:50:01.394Z,100137.13
2022-07-25T07:50:42.104Z,100135.44
2022-07-25T07:51:22.197Z,100126.31
2022-07-25T07:52:03.130Z,100136.28
2022-07-25T07:52:44.209Z,100143.28
2022-07-25T07:53:24.101Z,100133.97
2022-07-25T07:54:29.126Z,100143.44
2022-07-25T07:55:43.126Z,100139.00
2022-07-25T07:56:37.119Z,100119.06
2022-07-25T07:57:31.123Z,100135.34
2022-07-25T07:58:28.101Z,100130.41
2022-07-25T07:59:22.133Z,100132.75